Sunday, December 21, 2014, 9:01 PM EST

KW99, Petersburg, Grant County Airport

Location: Petersburg, WV, United States Lat: 38.983
Local Time: 9:01 PM EST ( 2:01 GMT) Lon: -79.133
Time Zone: US/Eastern Elev: 961 ft

Show me the last for .
Show Decoded

2014-12-21 20:35 METAR KW99 220135Z AUTO 00000KT 7SM CLR M02/M04 A3026 RMK AO2 T10231038 =
2014-12-21 20:15 METAR KW99 220115Z AUTO 00000KT 7SM CLR M02/M04 A3026 RMK AO2 T10211039 =
2014-12-21 19:55 METAR KW99 220055Z AUTO 27003KT 7SM CLR M01/M04 A3025 RMK AO2 T10141037 =
2014-12-21 19:30 METAR KW99 220030Z AUTO 00000KT 7SM CLR M01/M03 A3025 RMK AO2 T10091033 =
2014-12-21 19:15 METAR KW99 220015Z AUTO 00000KT 7SM CLR 00/M03 A3026 RMK AO2 T10041028 =
2014-12-21 18:50 METAR KW99 212350Z AUTO 00000KT 10SM CLR 00/M03 A3025 RMK AO2 T00001027 10070
                 21006 =
2014-12-21 18:35 METAR KW99 212335Z AUTO 00000KT 10SM CLR 00/M02 A3024 RMK AO2 T00031025 =
2014-12-21 18:15 METAR KW99 212315Z AUTO 28004KT 10SM CLR M01/M04 A3024 RMK AO2 T10061037 =
2014-12-21 17:55 METAR KW99 212255Z AUTO 00000KT 10SM CLR 00/M04 A3024 RMK AO2 T00031036 PNO =
2014-12-21 17:35 METAR KW99 212235Z AUTO 29003KT 10SM CLR 02/M03 A3025 RMK AO2 T00171030 =
2014-12-21 17:15 METAR KW99 212215Z AUTO 30003KT 10SM CLR 02/M03 A3024 RMK AO2 T00191028 =
2014-12-21 16:55 METAR KW99 212155Z AUTO 00000KT 10SM CLR 03/M03 A3023 RMK AO2 T00331034 =
2014-12-21 16:35 METAR KW99 212135Z AUTO 00000KT 10SM CLR 05/M03 A3024 RMK AO2 T00501032 =
2014-12-21 16:10 METAR KW99 212110Z AUTO 00000KT 10SM CLR 06/M04 A3022 RMK AO2 T00641037 =
2014-12-21 15:55 METAR KW99 212055Z AUTO 00000KT 10SM CLR 07/M03 A3023 RMK AO2 T00681035 =
2014-12-21 15:35 METAR KW99 212035Z AUTO 00000KT 10SM CLR 07/M04 A3022 RMK AO2 T00671038 =
2014-12-21 15:10 METAR KW99 212010Z AUTO 26003KT 10SM CLR 07/M04 A3022 RMK AO2 T00651037 =
2014-12-21 14:55 METAR KW99 211955Z AUTO 00000KT 10SM CLR 07/M03 A3022 RMK AO2 T00651035 =
2014-12-21 14:35 METAR KW99 211935Z AUTO 00000KT 10SM CLR 06/M04 A3022 RMK AO2 T00621037 =
2014-12-21 14:15 METAR KW99 211915Z AUTO 00000KT 10SM CLR 06/M04 A3023 RMK AO2 T00591036 =
2014-12-21 13:55 METAR KW99 211855Z AUTO 00000KT 10SM CLR 06/M03 A3024 RMK AO2 T00631031 =
2014-12-21 13:35 METAR KW99 211835Z AUTO 00000KT 10SM CLR 05/M04 A3025 RMK AO2 T00531039 =
2014-12-21 13:15 METAR KW99 211815Z AUTO 00000KT 10SM CLR 05/M04 A3026 RMK AO2 T00491040 =
2014-12-21 12:55 METAR KW99 211755Z AUTO 00000KT 10SM CLR 05/M04 A3027 RMK AO2 T00481040 10048
                 20001 =
2014-12-21 12:35 METAR KW99 211735Z AUTO 00000KT 10SM CLR 04/M04 A3028 RMK AO2 T00441044 =
2014-12-21 12:15 METAR KW99 211715Z AUTO 00000KT 10SM CLR 04/M04 A3029 RMK AO2 T00401040 =
2014-12-21 11:55 METAR KW99 211655Z AUTO 00000KT 10SM SCT033 SCT050 03/M04 A3030 RMK AO2
                 T00301045 =
2014-12-21 11:35 METAR KW99 211635Z AUTO 00000KT 10SM SCT033 OVC050 03/M04 A3031 RMK AO2
                 T00261045 =
2014-12-21 11:15 METAR KW99 211615Z AUTO 00000KT 10SM OVC050 03/M04 A3032 RMK AO2 T00301040 =
2014-12-21 10:55 METAR KW99 211555Z AUTO 00000KT 10SM SCT032 OVC050 02/M05 A3032 RMK AO2
                 T00201051 =
2014-12-21 10:35 METAR KW99 211535Z AUTO 00000KT 10SM OVC060 02/M04 A3032 RMK AO2 T00201041 =
2014-12-21 10:15 METAR KW99 211515Z AUTO 00000KT 10SM OVC060 02/M04 A3033 RMK AO2 T00161038 =
2014-12-21 09:55 METAR KW99 211455Z AUTO 00000KT 7SM OVC060 02/M03 A3033 RMK AO2 T00161034 =
2014-12-21 09:35 METAR KW99 211435Z AUTO 00000KT 7SM OVC060 01/M03 A3032 RMK AO2 T00131030 =
2014-12-21 09:15 METAR KW99 211415Z AUTO 00000KT 7SM OVC060 01/M03 A3032 RMK AO2 T00101030 =
2014-12-21 08:55 METAR KW99 211355Z AUTO 00000KT 7SM OVC060 01/M03 A3032 RMK AO2 T00081031 =
2014-12-21 08:35 METAR KW99 211335Z AUTO 00000KT 7SM SCT032 OVC060 01/M03 A3032 RMK AO2 T00061029
                 =
2014-12-21 08:15 METAR KW99 211315Z AUTO 00000KT 7SM SCT034 OVC060 01/M02 A3032 RMK AO2 T00051018
                 =
2014-12-21 07:55 METAR KW99 211255Z AUTO 00000KT 10SM SCT034 OVC060 00/M02 A3031 RMK AO2
                 T00031021 =
2014-12-21 07:35 METAR KW99 211235Z AUTO 00000KT 7SM OVC034 00/M02 A3031 RMK AO2 T00021019 =
2014-12-21 07:15 METAR KW99 211215Z AUTO 00000KT 10SM BKN034 OVC060 00/M02 A3030 RMK AO2
                 T00031024 =
2014-12-21 06:55 METAR KW99 211155Z AUTO 00000KT 7SM BKN034 OVC060 00/M02 A3030 RMK AO2 7////
                 T00021020 10006 21006 =
2014-12-21 06:35 METAR KW99 211135Z AUTO 00000KT 10SM SCT034 OVC060 00/M03 A3030 RMK AO2
                 T00031029 =
2014-12-21 06:15 METAR KW99 211115Z AUTO 00000KT 10SM SCT034 OVC060 00/M03 A3029 RMK AO2
                 T00031029 =
2014-12-21 05:55 METAR KW99 211055Z AUTO 00000KT 10SM SCT034 OVC060 01/M03 A3029 RMK AO2
                 T00051026 =
2014-12-21 05:35 METAR KW99 211035Z AUTO 00000KT 10SM OVC060 01/M02 A3028 RMK AO2 T00051025 =
2014-12-21 05:15 METAR KW99 211015Z AUTO 00000KT 10SM SCT033 OVC060 00/M02 A3027 RMK AO2
                 T00031020 =
2014-12-21 04:55 METAR KW99 210955Z AUTO 00000KT 10SM OVC035 00/M03 A3027 RMK AO2 T00021026 =
2014-12-21 04:35 METAR KW99 210935Z AUTO 00000KT 10SM OVC035 00/M03 A3027 RMK AO2 T00001027 =
2014-12-21 04:15 METAR KW99 210915Z AUTO 00000KT 10SM BKN035 OVC050 00/M03 A3027 RMK AO2
                 T10041031 =
2014-12-21 03:55 METAR KW99 210855Z AUTO 00000KT 10SM OVC050 00/M03 A3028 RMK AO2 T10051033 =
2014-12-21 03:35 METAR KW99 210835Z AUTO 00000KT 10SM SCT036 OVC050 00/M03 A3028 RMK AO2
                 T10051035 =
2014-12-21 03:15 METAR KW99 210815Z AUTO 00000KT 10SM OVC036 00/M04 A3028 RMK AO2 T10031037 =
2014-12-21 02:55 METAR KW99 210755Z AUTO 00000KT 10SM BKN036 OVC055 00/M03 A3027 RMK AO2
                 T10021034 =
2014-12-21 02:35 METAR KW99 210735Z AUTO 00000KT 10SM SCT036 OVC055 00/M03 A3026 RMK AO2
                 T00011027 =
2014-12-21 02:15 METAR KW99 210715Z AUTO 00000KT 7SM BKN036 OVC055 00/M02 A3026 RMK AO2 T00041023
                 =
2014-12-21 01:55 METAR KW99 210655Z AUTO 00000KT 7SM SCT036 OVC055 01/M01 A3026 RMK AO2 T00061014
                 =
2014-12-21 01:35 METAR KW99 210635Z AUTO 00000KT 7SM BKN036 OVC055 01/M01 A3026 RMK AO2 T00051015
                 =
2014-12-21 01:15 METAR KW99 210615Z AUTO 00000KT 10SM OVC038 01/M02 A3026 RMK AO2 T00061020 =
2014-12-21 00:55 METAR KW99 210555Z AUTO 00000KT 7SM OVC038 01/M01 A3026 RMK AO2 T00061015 10006
                 21002 400201069 =
2014-12-21 00:35 METAR KW99 210535Z AUTO 00000KT 10SM BKN038 OVC044 01/M02 A3026 RMK AO2
                 T00061020 =
2014-12-21 00:15 METAR KW99 210515Z AUTO 00000KT 10SM OVC042 01/M02 A3026 RMK AO2 T00061020 =
2014-12-20 23:55 METAR KW99 210455Z AUTO 00000KT 10SM OVC042 01/M02 A3026 RMK AO2 T00051021 =
2014-12-20 23:35 METAR KW99 210435Z AUTO 00000KT 10SM OVC042 00/M02 A3026 RMK AO2 T00041019 =
2014-12-20 23:15 METAR KW99 210415Z AUTO 00000KT 10SM OVC040 00/M02 A3026 RMK AO2 T00031022 =
2014-12-20 22:55 METAR KW99 210355Z AUTO 00000KT 10SM OVC040 00/M02 A3026 RMK AO2 T00021024 =
2014-12-20 22:35 METAR KW99 210335Z AUTO 00000KT 10SM OVC040 00/M02 A3026 RMK AO2 T10011021 =
2014-12-20 22:15 METAR KW99 210315Z AUTO 00000KT 10SM BKN042 OVC075 00/M03 A3026 RMK AO2
                 T00001026 =
2014-12-20 21:55 METAR KW99 210255Z AUTO 00000KT 10SM SCT042 OVC075 00/M03 A3026 RMK AO2
                 T00031027 =
2014-12-20 21:35 METAR KW99 210235Z AUTO 00000KT 10SM SCT042 OVC075 00/M03 A3026 RMK AO2
                 T00031030 PNO =

Support USWX by starting your Amazon purchase here.